Time;durP1;ratioP1;P1;durP2;ratioP2;P2;SDS_P1;SDS_P2;PMS_P1;PMS_P2;Temp;Humidity;BMP_temperature;BMP_pressure;BME280_temperature;BME280_humidity;BME280_pressure;Samples;Min_cycle;Max_cycle;Signal;HPM_P1;HPM_P2
2023/05/08 00:06:53;;;;;;;1.95;1.65;;;;;;;;;;5696812;22;20060;-79
2023/05/08 00:09:19;;;;;;;3.35;1.90;;;;;;;;;;4978249;28;20098;-80
2023/05/08 00:11:44;;;;;;;3.13;1.95;;;;;;;;;;4985260;28;20022;-80
2023/05/08 00:14:09;;;;;;;2.88;1.80;;;;;;;;;;5008524;28;20026;-81
2023/05/08 00:16:34;;;;;;;2.72;1.73;;;;;;;;;;5005911;28;20053;-80
2023/05/08 00:19:00;;;;;;;2.42;2.10;;;;;;;;;;4988583;28;20060;-81
2023/05/08 00:21:25;;;;;;;2.35;2.15;;;;;;;;;;5003521;28;20053;-80
2023/05/08 00:23:51;;;;;;;3.53;2.40;;;;;;;;;;4993770;28;20028;-81
2023/05/08 00:26:16;;;;;;;2.95;2.63;;;;;;;;;;5018748;28;20014;-81
2023/05/08 00:28:42;;;;;;;4.13;2.15;;;;;;;;;;4996881;28;20042;-81
2023/05/08 00:31:07;;;;;;;3.05;2.25;;;;;;;;;;4997434;28;20034;-79
2023/05/08 00:38:42;;;;;;;3.85;2.80;;;;;;;;;;5136771;23;20050;-79
2023/05/08 00:41:08;;;;;;;4.70;2.50;;;;;;;;;;4973226;28;20511;-79
2023/05/08 00:46:38;;;;;;;2.72;2.53;;;;;;;;;;5133693;23;20124;-79
2023/05/08 00:49:04;;;;;;;2.80;2.50;;;;;;;;;;5042310;28;20033;-80
2023/05/08 00:51:49;;;;;;;4.38;2.55;;;;;;;;;;5045203;28;20001;-79
2023/05/08 00:54:18;;;;;;;4.15;2.97;;;;;;;;;;5036092;28;20018;-79
2023/05/08 00:56:44;;;;;;;2.58;2.22;;;;;;;;;;5037682;28;20017;-79
2023/05/08 00:59:16;;;;;;;2.95;2.35;;;;;;;;;;5030732;28;20096;-81
2023/05/08 01:01:42;;;;;;;3.05;2.17;;;;;;;;;;5011815;28;20087;-79
2023/05/08 01:04:11;;;;;;;2.95;2.38;;;;;;;;;;5039392;28;20013;-82
2023/05/08 01:06:37;;;;;;;2.35;1.98;;;;;;;;;;5040997;28;20123;-78
2023/05/08 01:09:02;;;;;;;4.07;1.98;;;;;;;;;;5020548;28;20029;-80
2023/05/08 01:11:32;;;;;;;2.30;2.10;;;;;;;;;;5037021;28;20029;-76
2023/05/08 01:14:08;;;;;;;2.78;2.20;;;;;;;;;;5010608;28;20022;-77
2023/05/08 01:16:36;;;;;;;2.83;2.00;;;;;;;;;;5011921;28;20087;-78
2023/05/08 01:19:20;;;;;;;2.97;1.85;;;;;;;;;;5029296;28;20461;-76
2023/05/08 01:21:53;;;;;;;5.88;2.30;;;;;;;;;;5174724;23;20266;-78
2023/05/08 01:24:46;;;;;;;2.50;2.00;;;;;;;;;;5009406;28;20063;-80
2023/05/08 01:48:29;;;;;;;2.30;2.10;;;;;;;;;;4924495;29;20091;-79
2023/05/08 01:51:08;;;;;;;3.55;1.90;;;;;;;;;;4912680;29;20040;-77
2023/05/08 01:53:42;;;;;;;3.80;2.05;;;;;;;;;;4957980;28;20065;-79
2023/05/08 01:56:13;;;;;;;2.78;2.22;;;;;;;;;;4959817;28;20031;-79
2023/05/08 01:58:40;;;;;;;2.05;1.85;;;;;;;;;;4979107;28;20469;-80
2023/05/08 02:07:10;;;;;;;3.03;2.15;;;;;;;;;;5011163;28;20054;-79
2023/05/08 02:10:03;;;;;;;2.03;1.92;;;;;;;;;;4997712;28;20115;-80
2023/05/08 02:12:29;;;;;;;3.42;2.35;;;;;;;;;;4980086;28;20030;-82
2023/05/08 02:14:56;;;;;;;3.50;2.50;;;;;;;;;;4993547;28;20050;-79
2023/05/08 02:17:25;;;;;;;5.68;2.42;;;;;;;;;;4974122;28;20046;-79
2023/05/08 02:19:52;;;;;;;4.50;2.78;;;;;;;;;;4990547;28;20527;-81
2023/05/08 02:22:20;;;;;;;3.20;2.35;;;;;;;;;;5000963;28;20049;-79
2023/05/08 02:24:46;;;;;;;3.60;2.55;;;;;;;;;;4964691;28;20023;-82
2023/05/08 02:27:12;;;;;;;4.75;2.45;;;;;;;;;;4987098;28;20027;-80
2023/05/08 02:32:30;;;;;;;2.63;2.35;;;;;;;;;;5397729;23;20058;-79
2023/05/08 02:34:56;;;;;;;3.00;2.33;;;;;;;;;;4966420;28;20053;-80
2023/05/08 02:37:25;;;;;;;5.05;2.95;;;;;;;;;;4969624;28;20066;-81
2023/05/08 02:40:22;;;;;;;5.53;2.60;;;;;;;;;;4976205;28;20042;-81
2023/05/08 02:43:20;;;;;;;7.35;2.72;;;;;;;;;;4901669;29;20113;-81
2023/05/08 03:09:59;;;;;;;3.80;2.90;;;;;;;;;;5644712;23;20063;-77
2023/05/08 03:12:26;;;;;;;4.78;3.15;;;;;;;;;;4977496;28;20023;-80
2023/05/08 03:14:56;;;;;;;2.55;2.30;;;;;;;;;;4953464;29;20473;-79
2023/05/08 03:17:22;;;;;;;3.15;2.80;;;;;;;;;;4969672;28;20425;-79
2023/05/08 03:19:51;;;;;;;3.63;3.10;;;;;;;;;;4980629;28;20090;-80
2023/05/08 03:22:18;;;;;;;4.05;2.45;;;;;;;;;;4971726;28;20019;-80
2023/05/08 03:24:45;;;;;;;6.72;2.53;;;;;;;;;;4964126;28;20042;-82
2023/05/08 03:27:12;;;;;;;4.28;3.25;;;;;;;;;;4996584;28;20043;-81
2023/05/08 03:29:38;;;;;;;3.00;2.80;;;;;;;;;;4966806;28;20023;-80
2023/05/08 03:32:04;;;;;;;3.90;2.47;;;;;;;;;;4983130;28;20031;-80
2023/05/08 03:34:34;;;;;;;2.70;2.35;;;;;;;;;;4966540;28;20023;-80
2023/05/08 03:37:04;;;;;;;3.00;2.67;;;;;;;;;;4967603;28;20094;-80
2023/05/08 03:39:30;;;;;;;3.25;2.55;;;;;;;;;;4969625;28;20026;-80
2023/05/08 03:41:56;;;;;;;7.65;3.40;;;;;;;;;;4972365;28;20065;-81
2023/05/08 03:44:23;;;;;;;3.30;3.00;;;;;;;;;;4974830;29;20034;-80
2023/05/08 03:46:51;;;;;;;3.70;3.33;;;;;;;;;;4957499;29;20027;-82
2023/05/08 03:49:17;;;;;;;3.00;2.80;;;;;;;;;;4962418;28;20027;-81
2023/05/08 03:52:14;;;;;;;5.55;3.03;;;;;;;;;;4961510;28;20015;-81
2023/05/08 04:00:21;;;;;;;3.55;2.30;;;;;;;;;;5113493;23;20093;-84
2023/05/08 04:02:55;;;;;;;3.72;2.33;;;;;;;;;;4942453;28;20038;-82
2023/05/08 04:05:33;;;;;;;6.28;2.45;;;;;;;;;;4942519;29;20035;-83
2023/05/08 04:08:02;;;;;;;4.50;2.83;;;;;;;;;;4942857;29;20035;-81
2023/05/08 04:10:36;;;;;;;3.25;2.13;;;;;;;;;;4940673;29;20027;-80
2023/05/08 04:13:10;;;;;;;4.82;2.28;;;;;;;;;;4943116;29;20035;-81
2023/05/08 04:15:42;;;;;;;2.60;2.30;;;;;;;;;;4940563;29;20489;-81
2023/05/08 04:18:09;;;;;;;3.53;1.98;;;;;;;;;;4925265;29;20062;-81
2023/05/08 04:20:37;;;;;;;5.35;2.03;;;;;;;;;;4940337;29;20389;-80
2023/05/08 04:23:03;;;;;;;2.20;2.00;;;;;;;;;;4940883;29;20035;-83
2023/05/08 04:25:29;;;;;;;3.03;1.88;;;;;;;;;;4942640;29;20354;-76
2023/05/08 04:27:56;;;;;;;1.80;1.60;;;;;;;;;;4940806;29;20623;-78
2023/05/08 04:30:22;;;;;;;1.95;1.77;;;;;;;;;;4942249;29;20015;-79
2023/05/08 04:32:48;;;;;;;3.45;1.80;;;;;;;;;;4940861;29;20317;-78
2023/05/08 04:35:13;;;;;;;1.70;1.60;;;;;;;;;;4942488;29;20069;-78
2023/05/08 04:37:40;;;;;;;2.08;1.77;;;;;;;;;;4940612;29;20055;-77
2023/05/08 04:40:05;;;;;;;3.67;2.60;;;;;;;;;;4941492;29;20026;-78
2023/05/08 04:42:32;;;;;;;4.45;3.85;;;;;;;;;;4942452;29;20394;-75
2023/05/08 04:44:57;;;;;;;3.20;1.95;;;;;;;;;;4922650;29;20049;-77
2023/05/08 04:47:22;;;;;;;2.10;1.90;;;;;;;;;;4925313;29;20532;-78
2023/05/08 04:49:48;;;;;;;4.53;1.80;;;;;;;;;;4923029;29;20969;-78
2023/05/08 04:52:14;;;;;;;3.35;2.50;;;;;;;;;;4924695;29;20067;-78
2023/05/08 04:54:39;;;;;;;9.70;1.90;;;;;;;;;;4940169;29;20144;-78
2023/05/08 04:57:06;;;;;;;2.63;1.30;;;;;;;;;;4924814;29;20046;-78
2023/05/08 04:59:31;;;;;;;2.60;1.73;;;;;;;;;;4923246;29;20050;-78
2023/05/08 05:01:57;;;;;;;2.70;1.60;;;;;;;;;;4940745;28;20158;-76
2023/05/08 05:04:22;;;;;;;2.50;1.52;;;;;;;;;;4941808;29;20110;-78
2023/05/08 05:06:48;;;;;;;3.67;1.90;;;;;;;;;;4922821;29;20035;-76
2023/05/08 05:09:13;;;;;;;4.80;2.00;;;;;;;;;;4940607;28;20087;-77
2023/05/08 05:11:38;;;;;;;4.60;1.87;;;;;;;;;;4939629;29;20399;-78
2023/05/08 05:14:03;;;;;;;3.03;1.80;;;;;;;;;;4923957;29;20388;-78
2023/05/08 05:16:29;;;;;;;5.47;3.10;;;;;;;;;;4940646;29;20054;-77
2023/05/08 05:18:54;;;;;;;3.78;2.40;;;;;;;;;;4941246;29;20042;-76
2023/05/08 05:21:20;;;;;;;1.92;1.58;;;;;;;;;;4941353;29;20024;-79
2023/05/08 05:23:45;;;;;;;5.57;2.00;;;;;;;;;;4923309;29;20060;-79
2023/05/08 05:26:10;;;;;;;2.23;2.00;;;;;;;;;;4924496;29;20398;-80
2023/05/08 05:28:36;;;;;;;4.65;1.88;;;;;;;;;;4939576;29;20286;-80
2023/05/08 05:31:01;;;;;;;2.10;1.70;;;;;;;;;;4941466;29;20024;-78
2023/05/08 05:33:27;;;;;;;2.88;2.00;;;;;;;;;;4922777;29;20030;-78
2023/05/08 05:35:52;;;;;;;2.03;1.87;;;;;;;;;;4941778;29;20484;-81
2023/05/08 05:38:17;;;;;;;4.43;1.70;;;;;;;;;;4938528;29;20303;-79
2023/05/08 05:40:43;;;;;;;2.20;1.53;;;;;;;;;;4939469;29;20033;-79
2023/05/08 05:43:08;;;;;;;2.03;1.57;;;;;;;;;;4939290;29;20792;-79
2023/05/08 05:45:35;;;;;;;2.10;1.60;;;;;;;;;;4934077;29;20688;-80
2023/05/08 05:48:00;;;;;;;1.52;1.42;;;;;;;;;;4940659;29;20275;-79
2023/05/08 05:50:26;;;;;;;1.60;1.45;;;;;;;;;;4922117;29;20027;-80
2023/05/08 05:52:51;;;;;;;3.10;1.40;;;;;;;;;;4941568;29;20023;-80
2023/05/08 05:55:16;;;;;;;1.77;1.43;;;;;;;;;;4919167;29;20089;-80
2023/05/08 05:57:41;;;;;;;1.67;1.40;;;;;;;;;;4937129;29;20019;-80
2023/05/08 06:00:07;;;;;;;3.40;1.50;;;;;;;;;;4937482;29;20066;-80
2023/05/08 06:02:34;;;;;;;3.65;1.38;;;;;;;;;;4939337;29;20018;-79
2023/05/08 06:04:59;;;;;;;2.03;1.55;;;;;;;;;;4937203;29;20512;-81
2023/05/08 06:07:25;;;;;;;3.40;1.37;;;;;;;;;;4932914;29;20027;-84
2023/05/08 06:09:52;;;;;;;13.83;1.40;;;;;;;;;;4940401;29;20464;-79
2023/05/08 06:12:17;;;;;;;5.18;1.20;;;;;;;;;;4918883;28;20753;-79
2023/05/08 06:14:42;;;;;;;1.95;1.67;;;;;;;;;;4939568;29;20099;-80
2023/05/08 06:17:08;;;;;;;2.13;1.27;;;;;;;;;;4940821;29;20035;-80
2023/05/08 06:19:33;;;;;;;2.65;1.42;;;;;;;;;;4944335;29;20019;-80
2023/05/08 06:21:58;;;;;;;2.67;1.47;;;;;;;;;;4939243;29;20027;-80
2023/05/08 06:24:24;;;;;;;2.67;1.43;;;;;;;;;;4943091;29;20536;-81
2023/05/08 06:26:49;;;;;;;3.58;1.60;;;;;;;;;;4926890;29;20337;-82
2023/05/08 06:29:14;;;;;;;4.27;1.30;;;;;;;;;;4913874;29;20047;-83
2023/05/08 06:31:40;;;;;;;3.67;1.20;;;;;;;;;;4940167;29;20294;-83
2023/05/08 06:34:05;;;;;;;4.13;1.80;;;;;;;;;;4938631;29;20357;-85
2023/05/08 06:36:31;;;;;;;2.07;1.20;;;;;;;;;;4935162;29;20031;-81
2023/05/08 06:38:56;;;;;;;2.00;1.38;;;;;;;;;;4941050;29;20321;-82
2023/05/08 06:41:21;;;;;;;1.92;1.23;;;;;;;;;;4942369;29;20117;-82
2023/05/08 06:43:47;;;;;;;2.92;1.35;;;;;;;;;;4948952;28;20019;-81
2023/05/08 06:46:12;;;;;;;2.40;1.27;;;;;;;;;;4939017;29;20039;-82
2023/05/08 06:48:37;;;;;;;1.57;1.40;;;;;;;;;;4926149;29;20518;-81
2023/05/08 06:51:03;;;;;;;7.67;1.57;;;;;;;;;;4938422;29;20050;-82
2023/05/08 06:53:28;;;;;;;1.92;1.50;;;;;;;;;;4926493;29;20281;-82
2023/05/08 06:55:54;;;;;;;6.75;1.38;;;;;;;;;;4936915;29;20031;-81
2023/05/08 06:58:19;;;;;;;1.75;1.00;;;;;;;;;;4937698;29;20624;-80
2023/05/08 07:00:44;;;;;;;2.90;1.45;;;;;;;;;;4940272;28;20057;-81
2023/05/08 07:03:10;;;;;;;3.53;1.33;;;;;;;;;;4915561;29;20476;-80
2023/05/08 07:05:35;;;;;;;3.58;1.40;;;;;;;;;;4925713;29;20118;-81
2023/05/08 07:08:00;;;;;;;2.00;1.40;;;;;;;;;;4923901;29;20157;-80
2023/05/08 07:10:26;;;;;;;3.85;1.60;;;;;;;;;;4940073;29;20122;-81
2023/05/08 07:12:51;;;;;;;4.10;1.50;;;;;;;;;;4940690;29;20077;-82
2023/05/08 07:15:18;;;;;;;2.85;1.42;;;;;;;;;;4940267;29;20310;-81
2023/05/08 07:17:43;;;;;;;2.88;1.70;;;;;;;;;;4941371;29;20035;-78
2023/05/08 07:20:09;;;;;;;3.35;1.55;;;;;;;;;;4924301;29;20497;-80
2023/05/08 07:22:34;;;;;;;4.15;1.45;;;;;;;;;;4942617;29;20501;-80
2023/05/08 07:24:59;;;;;;;5.40;1.70;;;;;;;;;;4941060;28;20346;-79
2023/05/08 07:27:25;;;;;;;1.93;1.50;;;;;;;;;;4941723;29;20137;-79
2023/05/08 07:29:50;;;;;;;2.28;1.63;;;;;;;;;;4937144;29;20023;-77
2023/05/08 07:32:16;;;;;;;2.97;1.63;;;;;;;;;;4943462;29;20586;-78
2023/05/08 07:34:42;;;;;;;2.03;1.45;;;;;;;;;;4937732;29;20448;-79
2023/05/08 07:37:07;;;;;;;2.92;1.70;;;;;;;;;;4941686;29;20015;-79
2023/05/08 07:39:33;;;;;;;3.85;1.60;;;;;;;;;;4938410;29;20074;-78
2023/05/08 07:41:59;;;;;;;2.35;1.70;;;;;;;;;;4939446;29;20027;-79
2023/05/08 07:44:24;;;;;;;2.58;1.42;;;;;;;;;;4940145;29;20034;-77
2023/05/08 07:46:49;;;;;;;2.37;1.50;;;;;;;;;;4937215;29;20051;-78
2023/05/08 07:49:15;;;;;;;9.50;3.10;;;;;;;;;;4939398;29;20625;-77
2023/05/08 07:51:40;;;;;;;2.35;1.65;;;;;;;;;;4936456;29;20081;-79
2023/05/08 07:54:05;;;;;;;2.23;1.60;;;;;;;;;;4936134;29;20162;-80
2023/05/08 07:56:31;;;;;;;4.20;1.70;;;;;;;;;;4940489;29;20875;-82
2023/05/08 07:58:56;;;;;;;5.07;1.80;;;;;;;;;;4939343;29;20295;-83
2023/05/08 08:01:21;;;;;;;3.00;1.60;;;;;;;;;;4940691;29;20293;-82
2023/05/08 08:03:47;;;;;;;2.33;1.85;;;;;;;;;;4941179;29;21044;-82
2023/05/08 08:06:12;;;;;;;1.73;1.58;;;;;;;;;;4942839;29;20955;-83
2023/05/08 08:08:38;;;;;;;1.83;1.55;;;;;;;;;;4940387;29;20078;-84
2023/05/08 08:11:03;;;;;;;3.38;1.63;;;;;;;;;;4942604;29;20027;-81
2023/05/08 08:13:29;;;;;;;5.55;1.80;;;;;;;;;;4924232;29;20073;-83
2023/05/08 08:15:54;;;;;;;2.20;2.00;;;;;;;;;;4925373;29;20057;-82
2023/05/08 08:18:19;;;;;;;2.38;2.10;;;;;;;;;;4923530;29;20353;-84
2023/05/08 08:20:45;;;;;;;3.38;2.10;;;;;;;;;;4942340;29;20477;-83
2023/05/08 08:23:10;;;;;;;5.45;2.75;;;;;;;;;;4940997;29;20531;-83
2023/05/08 08:25:35;;;;;;;4.25;2.17;;;;;;;;;;4941429;29;20126;-81
2023/05/08 08:28:01;;;;;;;6.63;2.37;;;;;;;;;;4924518;29;20425;-82
2023/05/08 08:30:26;;;;;;;4.60;2.10;;;;;;;;;;4938286;29;20278;-82
2023/05/08 08:32:51;;;;;;;4.27;1.90;;;;;;;;;;4939768;29;20035;-83
2023/05/08 08:35:16;;;;;;;4.50;1.97;;;;;;;;;;4921689;28;20353;-83
2023/05/08 08:37:42;;;;;;;2.80;2.33;;;;;;;;;;4923563;29;20270;-82
2023/05/08 08:40:07;;;;;;;4.32;1.90;;;;;;;;;;4940528;29;20278;-81
2023/05/08 08:42:33;;;;;;;4.25;2.22;;;;;;;;;;4924668;29;20023;-83
2023/05/08 08:44:59;;;;;;;5.20;2.38;;;;;;;;;;4942221;29;20082;-81
2023/05/08 08:47:27;;;;;;;7.20;2.60;;;;;;;;;;4926517;29;20129;-83
2023/05/08 08:49:53;;;;;;;2.40;2.15;;;;;;;;;;4923683;29;20031;-81
2023/05/08 08:52:39;;;;;;;4.03;2.20;;;;;;;;;;4939364;29;21010;-78
2023/05/08 08:55:07;;;;;;;3.50;2.33;;;;;;;;;;4923743;29;20082;-81
2023/05/08 08:57:33;;;;;;;6.03;2.40;;;;;;;;;;4922849;29;20045;-79
2023/05/08 09:00:02;;;;;;;3.70;2.30;;;;;;;;;;4939026;29;20054;-81
2023/05/08 09:02:28;;;;;;;2.75;2.35;;;;;;;;;;4934841;28;20023;-79
2023/05/08 09:04:53;;;;;;;3.05;2.75;;;;;;;;;;4936759;29;20053;-81
2023/05/08 09:07:19;;;;;;;2.88;2.60;;;;;;;;;;4937807;29;20098;-80
2023/05/08 09:09:45;;;;;;;4.47;2.65;;;;;;;;;;4929163;29;20118;-84
2023/05/08 09:12:14;;;;;;;3.63;2.92;;;;;;;;;;4938894;29;20025;-80
2023/05/08 09:14:39;;;;;;;4.22;3.42;;;;;;;;;;4931273;29;20031;-82
2023/05/08 09:17:05;;;;;;;3.03;2.83;;;;;;;;;;4939423;29;20114;-80
2023/05/08 09:19:30;;;;;;;2.85;2.63;;;;;;;;;;4940291;29;20589;-80
2023/05/08 09:21:58;;;;;;;5.15;3.00;;;;;;;;;;4938976;29;20480;-83
2023/05/08 09:24:23;;;;;;;4.28;2.83;;;;;;;;;;4934197;29;20099;-85
2023/05/08 09:26:48;;;;;;;4.45;2.72;;;;;;;;;;4917482;29;20482;-81
2023/05/08 09:29:14;;;;;;;4.63;2.80;;;;;;;;;;4931763;29;20027;-83
2023/05/08 09:31:44;;;;;;;5.07;3.22;;;;;;;;;;4938374;28;20023;-84
2023/05/08 09:34:10;;;;;;;3.58;3.28;;;;;;;;;;4922007;29;20490;-84
2023/05/08 09:36:38;;;;;;;8.88;3.13;;;;;;;;;;4920850;29;20011;-86
2023/05/08 09:39:04;;;;;;;4.90;3.38;;;;;;;;;;4938648;29;20031;-83
2023/05/08 09:41:29;;;;;;;3.58;3.28;;;;;;;;;;4937379;28;20027;-86
2023/05/08 09:44:04;;;;;;;6.30;2.93;;;;;;;;;;4939431;29;20428;-83
2023/05/08 09:46:30;;;;;;;4.90;3.28;;;;;;;;;;4922826;29;20308;-85
2023/05/08 09:48:56;;;;;;;5.70;3.20;;;;;;;;;;4951929;28;20039;-84
2023/05/08 09:51:22;;;;;;;3.25;2.97;;;;;;;;;;4943812;29;20675;-83
2023/05/08 09:53:53;;;;;;;8.70;3.13;;;;;;;;;;4924796;29;20501;-86
2023/05/08 09:56:31;;;;;;;5.97;3.35;;;;;;;;;;4942719;29;20221;-85
2023/05/08 09:58:56;;;;;;;6.30;3.55;;;;;;;;;;4938660;29;20055;-86
2023/05/08 10:01:32;;;;;;;5.32;3.65;;;;;;;;;;4926709;29;20038;-83
2023/05/08 10:03:58;;;;;;;5.47;3.80;;;;;;;;;;4940490;29;20560;-85
2023/05/08 10:06:24;;;;;;;6.28;3.60;;;;;;;;;;4925902;29;20072;-83
2023/05/08 10:09:04;;;;;;;4.32;3.38;;;;;;;;;;4944969;29;20059;-84
2023/05/08 10:11:30;;;;;;;4.05;3.60;;;;;;;;;;4927325;29;20023;-85
2023/05/08 10:13:55;;;;;;;9.93;4.00;;;;;;;;;;4927161;29;20587;-83
2023/05/08 10:16:21;;;;;;;4.13;3.53;;;;;;;;;;4945032;29;20019;-82
2023/05/08 10:18:47;;;;;;;5.93;4.15;;;;;;;;;;4941931;29;20043;-87
2023/05/08 10:21:13;;;;;;;4.82;3.58;;;;;;;;;;4946214;29;20027;-85
2023/05/08 10:23:38;;;;;;;6.65;4.00;;;;;;;;;;4926301;29;20436;-83
2023/05/08 10:26:11;;;;;;;7.97;4.20;;;;;;;;;;4927932;29;20386;-82
2023/05/08 10:28:53;;;;;;;4.00;3.63;;;;;;;;;;4943710;29;20051;-82
2023/05/08 10:31:20;;;;;;;6.35;3.92;;;;;;;;;;4930962;29;20132;-85
2023/05/08 10:33:48;;;;;;;6.32;3.60;;;;;;;;;;4941237;28;20019;-83
2023/05/08 10:36:14;;;;;;;7.80;3.38;;;;;;;;;;4928201;29;20097;-84
2023/05/08 10:38:40;;;;;;;4.78;3.97;;;;;;;;;;4946131;29;20054;-84
2023/05/08 10:41:05;;;;;;;8.65;3.67;;;;;;;;;;4943522;29;20030;-82
2023/05/08 10:43:31;;;;;;;4.75;3.88;;;;;;;;;;4945775;29;20035;-84
2023/05/08 10:45:57;;;;;;;6.30;4.53;;;;;;;;;;4943440;29;20899;-84
2023/05/08 10:48:25;;;;;;;4.18;3.55;;;;;;;;;;4944730;29;20023;-86
2023/05/08 10:51:23;;;;;;;4.53;4.07;;;;;;;;;;4943986;29;20023;-84
2023/05/08 10:53:58;;;;;;;3.93;3.53;;;;;;;;;;4901095;29;20031;-86
2023/05/08 10:56:27;;;;;;;3.67;3.38;;;;;;;;;;4944318;29;21576;-85
2023/05/08 10:58:56;;;;;;;4.22;3.78;;;;;;;;;;4940360;28;20051;-85
2023/05/08 11:01:22;;;;;;;6.32;4.00;;;;;;;;;;4938930;29;20098;-85
2023/05/08 11:03:51;;;;;;;4.85;3.60;;;;;;;;;;4937236;29;20102;-82
2023/05/08 11:06:16;;;;;;;;;;;;;;;;;;4925789;29;20130;-86
2023/05/08 11:08:46;;;;;;;5.32;3.63;;;;;;;;;;4942459;29;19993;-83
2023/05/08 11:11:28;;;;;;;4.40;3.67;;;;;;;;;;4942928;29;20047;-86
2023/05/08 11:13:57;;;;;;;6.30;4.38;;;;;;;;;;4945972;29;20035;-87
2023/05/08 11:16:41;;;;;;;6.00;4.07;;;;;;;;;;4917122;28;20904;-87
2023/05/08 11:19:19;;;;;;;6.00;4.65;;;;;;;;;;4945304;29;20035;-86
2023/05/08 11:22:03;;;;;;;5.95;3.80;;;;;;;;;;4941264;29;20027;-84
2023/05/08 11:24:35;;;;;;;6.72;4.22;;;;;;;;;;4937982;29;20074;-85
2023/05/08 11:27:01;;;;;;;4.10;3.70;;;;;;;;;;4938050;28;20039;-79
2023/05/08 11:29:26;;;;;;;5.97;3.60;;;;;;;;;;4925622;29;20042;-85
2023/05/08 11:31:52;;;;;;;4.90;3.53;;;;;;;;;;4923116;29;20054;-87
2023/05/08 11:34:52;;;;;;;6.00;3.40;;;;;;;;;;4942091;29;20031;-85
2023/05/08 11:37:26;;;;;;;4.53;3.30;;;;;;;;;;4916858;29;20466;-87
2023/05/08 11:39:51;;;;;;;4.65;3.17;;;;;;;;;;4937270;29;20043;-85
2023/05/08 11:42:25;;;;;;;5.20;3.43;;;;;;;;;;4937221;29;20035;-85
2023/05/08 11:45:06;;;;;;;3.95;2.92;;;;;;;;;;4927754;29;20363;-83
2023/05/08 11:47:42;;;;;;;3.42;3.22;;;;;;;;;;4936746;29;20063;-93
2023/05/08 11:50:08;;;;;;;3.60;3.30;;;;;;;;;;4942704;29;20031;-82
2023/05/08 11:52:35;;;;;;;3.40;3.13;;;;;;;;;;4932668;29;20560;-86
2023/05/08 11:55:04;;;;;;;5.20;3.17;;;;;;;;;;4924714;29;20082;-84
2023/05/08 11:57:31;;;;;;;4.65;3.10;;;;;;;;;;4933905;29;20932;-84
2023/05/08 11:59:56;;;;;;;4.35;3.33;;;;;;;;;;4924768;29;20055;-85
2023/05/08 12:02:35;;;;;;;3.67;3.37;;;;;;;;;;4916585;29;20054;-86
2023/05/08 12:05:00;;;;;;;5.25;3.50;;;;;;;;;;4943503;29;20496;-87
2023/05/08 12:07:26;;;;;;;4.00;3.70;;;;;;;;;;4923616;29;20039;-86
2023/05/08 12:09:51;;;;;;;3.83;3.30;;;;;;;;;;4943562;29;20291;-84
2023/05/08 12:12:16;;;;;;;3.27;3.07;;;;;;;;;;4923958;29;20764;-84
2023/05/08 12:14:42;;;;;;;2.80;2.60;;;;;;;;;;4925247;29;20259;-85
2023/05/08 12:17:07;;;;;;;5.63;3.07;;;;;;;;;;4925618;29;20271;-89
2023/05/08 12:19:32;;;;;;;2.38;2.17;;;;;;;;;;4946401;29;20026;-88
2023/05/08 12:21:58;;;;;;;5.53;2.78;;;;;;;;;;4928044;29;20069;-87
2023/05/08 12:24:24;;;;;;;2.60;2.40;;;;;;;;;;4928019;29;20023;-86
2023/05/08 12:26:53;;;;;;;2.75;2.15;;;;;;;;;;4929235;29;20101;-91
2023/05/08 12:29:18;;;;;;;2.53;2.28;;;;;;;;;;4927556;29;20058;-89
2023/05/08 12:31:44;;;;;;;3.05;2.85;;;;;;;;;;4928241;29;20055;-85
2023/05/08 12:34:09;;;;;;;3.40;2.33;;;;;;;;;;4925654;29;20521;-88
2023/05/08 12:36:35;;;;;;;5.13;2.67;;;;;;;;;;4925450;29;20050;-89
2023/05/08 12:39:13;;;;;;;2.90;2.60;;;;;;;;;;4937596;29;20031;-88
2023/05/08 12:41:46;;;;;;;2.70;2.17;;;;;;;;;;4927092;29;20062;-87
2023/05/08 12:44:18;;;;;;;3.30;2.83;;;;;;;;;;4942596;29;20027;-87
2023/05/08 12:46:53;;;;;;;4.47;4.07;;;;;;;;;;4914356;29;20457;-88
2023/05/08 12:49:27;;;;;;;4.70;4.30;;;;;;;;;;4926926;29;20448;-90
2023/05/08 12:51:59;;;;;;;5.20;4.70;;;;;;;;;;4925688;29;20026;-84
2023/05/08 12:54:31;;;;;;;5.32;4.63;;;;;;;;;;4943943;29;20055;-88
2023/05/08 12:56:56;;;;;;;4.05;3.75;;;;;;;;;;4925466;29;20033;-87
2023/05/08 12:59:31;;;;;;;4.60;4.17;;;;;;;;;;4925388;29;20039;-84
2023/05/08 13:01:56;;;;;;;8.48;4.35;;;;;;;;;;4926010;29;20271;-89
2023/05/08 13:04:21;;;;;;;4.57;4.00;;;;;;;;;;4943222;29;20569;-90
2023/05/08 13:06:56;;;;;;;4.37;3.90;;;;;;;;;;4944706;29;20602;-89
2023/05/08 13:09:24;;;;;;;4.90;4.47;;;;;;;;;;4929749;29;20267;-89
2023/05/08 13:11:49;;;;;;;9.20;4.80;;;;;;;;;;4927288;29;20110;-86
2023/05/08 13:14:15;;;;;;;5.32;4.85;;;;;;;;;;4943308;29;20102;-86
2023/05/08 13:16:44;;;;;;;5.18;4.68;;;;;;;;;;4925884;29;20436;-90
2023/05/08 13:19:09;;;;;;;5.47;4.97;;;;;;;;;;4944531;29;20431;-92
2023/05/08 13:21:34;;;;;;;5.67;4.53;;;;;;;;;;4926040;29;20015;-84
2023/05/08 13:24:00;;;;;;;4.77;4.10;;;;;;;;;;4943918;29;20566;-93
2023/05/08 13:26:25;;;;;;;4.68;3.78;;;;;;;;;;4925700;29;20299;-90
2023/05/08 13:28:51;;;;;;;5.43;4.40;;;;;;;;;;4944026;29;20098;-80
2023/05/08 13:31:16;;;;;;;4.18;3.67;;;;;;;;;;4925549;29;20038;-91
2023/05/08 13:33:41;;;;;;;7.97;3.13;;;;;;;;;;4915602;29;20027;-90
2023/05/08 13:36:07;;;;;;;5.00;2.42;;;;;;;;;;4925368;29;20259;-83
2023/05/08 13:38:33;;;;;;;4.63;2.50;;;;;;;;;;4919259;29;20019;-90
2023/05/08 13:40:59;;;;;;;5.88;2.95;;;;;;;;;;4925884;29;20023;-86
2023/05/08 13:43:24;;;;;;;3.17;2.17;;;;;;;;;;4918412;29;20031;-88
2023/05/08 13:45:50;;;;;;;2.40;2.20;;;;;;;;;;4925317;29;20049;-85
2023/05/08 13:48:15;;;;;;;2.80;2.42;;;;;;;;;;4917714;29;20024;-85
2023/05/08 13:50:40;;;;;;;2.63;2.42;;;;;;;;;;4924446;29;20123;-86
2023/05/08 13:56:13;;;;;;;3.00;2.80;;;;;;;;;;4997975;23;20058;-90
2023/05/08 14:09:34;;;;;;;5.25;4.00;;;;;;;;;;5080564;23;20054;-93
2023/05/08 14:11:59;;;;;;;5.72;4.20;;;;;;;;;;4966021;28;20041;-90
2023/05/08 14:17:33;;;;;;;5.22;4.72;;;;;;;;;;5065755;23;20043;-85
2023/05/08 14:35:42;;;;;;;7.18;6.50;;;;;;;;;;5177656;23;20068;-83
2023/05/08 14:43:41;;;;;;;6.95;6.45;;;;;;;;;;5954392;23;20061;-80
2023/05/08 15:02:47;;;;;;;6.60;3.70;;;;;;;;;;5602270;23;20105;-91
2023/05/08 15:22:45;;;;;;;3.42;3.10;;;;;;;;;;5285243;23;20042;-87
2023/05/08 15:25:11;;;;;;;3.25;2.95;;;;;;;;;;5021451;28;20029;-86
2023/05/08 15:30:20;;;;;;;2.85;2.55;;;;;;;;;;5044686;23;20117;-88
2023/05/08 15:32:46;;;;;;;3.55;2.50;;;;;;;;;;4964270;28;20050;-88
2023/05/08 15:35:11;;;;;;;3.00;2.72;;;;;;;;;;4954468;28;20031;-89
2023/05/08 15:37:37;;;;;;;4.32;2.45;;;;;;;;;;4962664;28;20100;-89
2023/05/08 15:40:03;;;;;;;6.22;2.80;;;;;;;;;;4961119;28;20030;-85
2023/05/08 15:42:28;;;;;;;2.78;2.58;;;;;;;;;;4976863;28;20018;-88
2023/05/08 15:45:09;;;;;;;2.88;2.60;;;;;;;;;;4960537;28;20022;-88
2023/05/08 15:47:37;;;;;;;2.97;2.67;;;;;;;;;;4977224;28;20479;-88
2023/05/08 15:50:02;;;;;;;4.13;2.80;;;;;;;;;;4962332;28;20549;-86
2023/05/08 15:52:27;;;;;;;2.75;2.40;;;;;;;;;;4967028;28;20149;-88
2023/05/08 15:54:53;;;;;;;3.30;3.00;;;;;;;;;;4966457;28;20113;-87
2023/05/08 15:57:18;;;;;;;6.13;2.88;;;;;;;;;;4963568;28;20022;-87
2023/05/08 15:59:43;;;;;;;3.58;2.90;;;;;;;;;;4966415;28;20021;-87
2023/05/08 16:10:34;;;;;;;4.45;4.00;;;;;;;;;;3168784;26;20050;-85
2023/05/08 17:59:13;;;;;;;5.70;5.30;;;;;;;;;;4968715;28;20147;-88
2023/05/08 18:01:38;;;;;;;5.30;4.70;;;;;;;;;;4964795;28;20649;-89
2023/05/08 18:04:04;;;;;;;6.75;4.80;;;;;;;;;;4965429;28;20026;-91
2023/05/08 18:06:29;;;;;;;5.80;5.30;;;;;;;;;;4963670;28;20040;-87
2023/05/08 18:08:54;;;;;;;8.10;6.60;;;;;;;;;;4982407;28;20036;-89
2023/05/08 18:11:21;;;;;;;5.25;4.75;;;;;;;;;;4962574;28;20905;-87
2023/05/08 18:13:47;;;;;;;5.47;4.80;;;;;;;;;;4965213;28;20109;-87
2023/05/08 18:16:13;;;;;;;5.50;4.82;;;;;;;;;;4964461;28;20742;-87
2023/05/08 18:18:38;;;;;;;4.45;4.15;;;;;;;;;;4966371;28;20034;-90
2023/05/08 18:21:03;;;;;;;4.15;3.85;;;;;;;;;;4964274;28;20019;-90
2023/05/08 18:23:29;;;;;;;6.22;4.50;;;;;;;;;;4966030;28;20519;-87
2023/05/08 18:25:54;;;;;;;5.28;4.30;;;;;;;;;;4963276;28;20062;-87
2023/05/08 18:28:19;;;;;;;5.15;4.63;;;;;;;;;;4950475;28;20112;-89
2023/05/08 18:30:45;;;;;;;7.18;4.47;;;;;;;;;;4968273;28;20028;-90
2023/05/08 18:33:10;;;;;;;5.10;4.23;;;;;;;;;;4966432;28;20162;-89
2023/05/08 18:35:35;;;;;;;5.63;4.20;;;;;;;;;;4986071;28;21104;-88
2023/05/08 18:38:00;;;;;;;5.27;4.17;;;;;;;;;;4967453;28;20073;-89
2023/05/08 19:23:33;;;;;;;6.65;4.32;;;;;;;;;;4971675;28;20081;-84
2023/05/08 19:29:47;;;;;;;6.18;4.80;;;;;;;;;;4964505;28;20226;-86
2023/05/08 19:43:34;;;;;;;4.70;4.30;;;;;;;;;;5118006;23;20058;-87
2023/05/08 19:46:00;;;;;;;5.90;4.78;;;;;;;;;;4980032;28;20056;-86
2023/05/08 19:48:25;;;;;;;5.28;4.85;;;;;;;;;;4998950;28;20014;-88
2023/05/08 19:50:50;;;;;;;6.32;5.10;;;;;;;;;;4997813;28;20052;-89
2023/05/08 19:56:19;;;;;;;5.13;4.72;;;;;;;;;;5030437;23;20054;-85
2023/05/08 20:25:00;;;;;;;5.78;5.38;;;;;;;;;;4949876;29;20037;-82
2023/05/08 20:27:33;;;;;;;5.50;4.97;;;;;;;;;;4968846;29;20047;-81
2023/05/08 20:29:59;;;;;;;;;;;;;;;;;;4981693;28;20030;-82
2023/05/08 20:33:03;;;;;;;6.95;5.20;;;;;;;;;;5003258;28;20389;-83
2023/05/08 20:35:34;;;;;;;5.03;4.72;;;;;;;;;;4991785;28;20029;-84
2023/05/08 20:38:03;;;;;;;5.68;5.07;;;;;;;;;;4974726;28;20035;-82